Strona główna
METAR-TAF:

METAR-TAF

Lotnisko :

Delaware County Airport (Johnson Field)

Muncie, Indiana, Stany Zjednoczone

Szerokość geograficzna: 40-14-03N, Długość geograficzna: 085-23-37W, wysokość: 285 m

Aktualna obserwacja pogody

Raport powstał 30 minut temu, godzina 12:53 UTC
Wiatr 18 kt od południe w porywach dochodzący do 27 kt
Temperatura 3°C
Wilgotność 87%
Ciśnienie 1011 hPa
Widzialność: 9.7 km
Mało chmury na wysokości 3200 ft
Przerywane chmury na wysokości 5000 ft
Zachmurzenie całkowite na wysokości 6500 ft
słaby deszcz

METAR: KMIE 181253Z 19018G27KT 6SM -RA FEW032 BKN050 OVC065 03/01 A2986 RMK AO2 PK WND 19029/1237 SLP117 P0006 T00330006

czas: 08:23 (13:23 UTC)


TAF: brakujący

Obserwacja i prognoza pogody dla ponad 4000 lotnisk (raport METAR i TAF).

Dostępne stacje oznaczono żółtymi i czerwonymi punktami na mapie.

Najedź kursorem aby zobaczyć nazwę stacji.

Kliknij aby zobaczyć obserwacje i prognozy pogody.

Aby zmienić mapę: kliknij na zielony przycisk z czarnym krzyżykiem, aby powiększyć; na zielony przycisk z myślnikiem, aby pomniejszyć; na zielone strzałki, aby przejść do map sąsiednich.


METAR-TAF: